Time;durP1;ratioP1;P1;durP2;ratioP2;P2;SDS_P1;SDS_P2;PMS_P1;PMS_P2;Temp;Humidity;BMP_temperature;BMP_pressure;BME280_temperature;BME280_humidity;BME280_pressure;Samples;Min_cycle;Max_cycle;Signal;HPM_P1;HPM_P2
2022/09/13 00:01:16;;;;;;;22.50;16.83;;;16.10;99.90;;;;;;5011581;28;20054;-45
2022/09/13 00:03:42;;;;;;;21.20;16.02;;;16.10;99.90;;;;;;5029224;28;20705;-45
2022/09/13 00:06:15;;;;;;;27.52;16.50;;;16.10;99.90;;;;;;5029147;28;20159;-47
2022/09/13 00:08:41;;;;;;;20.75;15.57;;;16.10;99.90;;;;;;5038634;28;20072;-46
2022/09/13 00:11:24;;;;;;;21.90;14.93;;;16.10;99.90;;;;;;5049430;28;20044;-44
2022/09/13 00:13:50;;;;;;;19.98;14.88;;;16.10;99.90;;;;;;5049424;28;20119;-45
2022/09/13 00:16:18;;;;;;;20.25;14.15;;;16.10;99.90;;;;;;5049836;28;20132;-44
2022/09/13 00:18:45;;;;;;;21.23;14.85;;;16.10;99.90;;;;;;5049650;28;20041;-45
2022/09/13 00:21:13;;;;;;;22.55;15.48;;;16.10;99.90;;;;;;5049421;28;20033;-45
2022/09/13 00:23:40;;;;;;;22.48;15.93;;;16.10;99.90;;;;;;5049687;28;20106;-46
2022/09/13 00:26:12;;;;;;;20.02;14.98;;;16.00;99.90;;;;;;5049038;28;20483;-46
2022/09/13 00:28:38;;;;;;;20.75;14.80;;;16.10;99.90;;;;;;5049433;28;20414;-45
2022/09/13 00:31:06;;;;;;;23.55;17.30;;;16.10;99.90;;;;;;5048544;28;20550;-45
2022/09/13 00:33:32;;;;;;;24.30;17.13;;;16.10;99.90;;;;;;5049217;28;20049;-46
2022/09/13 00:36:01;;;;;;;26.02;17.70;;;16.10;99.90;;;;;;5048960;28;20037;-45
2022/09/13 00:38:27;;;;;;;28.02;19.10;;;16.00;99.90;;;;;;5049101;28;20059;-47
2022/09/13 00:40:52;;;;;;;26.85;18.60;;;16.10;99.90;;;;;;5048572;28;20544;-45
2022/09/13 00:43:20;;;;;;;24.27;18.13;;;16.10;99.90;;;;;;5049036;28;20049;-45
2022/09/13 00:45:47;;;;;;;28.42;19.20;;;16.10;99.90;;;;;;5048451;28;20052;-45
2022/09/13 00:48:21;;;;;;;30.45;18.55;;;16.10;99.90;;;;;;5048474;28;20120;-44
2022/09/13 00:50:54;;;;;;;24.45;18.70;;;16.10;99.90;;;;;;5048341;28;20498;-46
2022/09/13 00:53:29;;;;;;;22.98;17.52;;;16.20;99.90;;;;;;5048365;28;20045;-45
2022/09/13 00:56:08;;;;;;;22.80;16.90;;;16.20;99.90;;;;;;5047840;28;20150;-46
2022/09/13 00:58:40;;;;;;;31.08;18.13;;;16.00;99.90;;;;;;5048342;28;20902;-46
2022/09/13 01:01:10;;;;;;;27.50;17.10;;;16.20;99.90;;;;;;5048293;28;20037;-45
2022/09/13 01:03:36;;;;;;;24.42;16.17;;;16.20;99.90;;;;;;5048595;28;20138;-45
2022/09/13 01:06:15;;;;;;;32.38;18.52;;;16.20;99.90;;;;;;5048347;28;20619;-45
2022/09/13 01:08:44;;;;;;;29.02;16.50;;;16.20;99.90;;;;;;5048063;28;20048;-46
2022/09/13 01:11:17;;;;;;;28.33;17.02;;;16.20;99.90;;;;;;5047783;28;20053;-45
2022/09/13 01:13:43;;;;;;;24.63;14.63;;;16.20;99.90;;;;;;5048475;28;20649;-44
2022/09/13 01:16:09;;;;;;;33.45;17.23;;;16.20;99.90;;;;;;5048087;28;20477;-46
2022/09/13 01:18:35;;;;;;;23.90;14.20;;;16.20;99.90;;;;;;5048481;28;20048;-44
2022/09/13 01:21:38;;;;;;;22.10;14.70;;;16.20;99.90;;;;;;5048636;28;20171;-45
2022/09/13 01:24:26;;;;;;;27.75;15.02;;;16.20;99.90;;;;;;5047828;28;20037;-45
2022/09/13 01:26:54;;;;;;;18.40;14.23;;;16.20;99.90;;;;;;5047535;28;20052;-45
2022/09/13 01:29:48;;;;;;;28.25;14.48;;;16.20;99.90;;;;;;5047326;28;20521;-46
2022/09/13 01:32:34;;;;;;;23.60;14.07;;;16.20;99.90;;;;;;5047198;28;20079;-45
2022/09/13 01:35:07;;;;;;;23.38;14.25;;;16.20;99.90;;;;;;5047211;28;20049;-46
2022/09/13 01:37:36;;;;;;;24.48;14.68;;;16.20;99.90;;;;;;5029441;28;20045;-44
2022/09/13 01:40:16;;;;;;;21.08;14.27;;;16.20;99.90;;;;;;5047042;28;20053;-45
2022/09/13 01:43:17;;;;;;;20.10;14.95;;;16.10;99.90;;;;;;5047268;28;20152;-45
2022/09/13 01:45:46;;;;;;;26.30;15.00;;;16.10;99.90;;;;;;5046920;28;20134;-45
2022/09/13 01:48:21;;;;;;;32.10;16.30;;;16.10;99.90;;;;;;5047253;28;20040;-44
2022/09/13 01:51:06;;;;;;;33.13;17.27;;;15.80;99.90;;;;;;5047014;28;20059;-44
2022/09/13 01:54:05;;;;;;;28.58;16.20;;;16.10;99.90;;;;;;5047042;28;20049;-44
2022/09/13 01:56:59;;;;;;;31.27;16.98;;;15.90;99.90;;;;;;5046640;28;20513;-45
2022/09/13 01:59:31;;;;;;;30.60;16.77;;;16.10;99.90;;;;;;5047532;28;20131;-45
2022/09/13 02:01:59;;;;;;;31.63;17.30;;;16.10;99.90;;;;;;5047063;28;20041;-47
2022/09/13 02:04:43;;;;;;;32.67;16.45;;;16.10;99.90;;;;;;5046969;28;20041;-45
2022/09/13 02:07:20;;;;;;;29.08;16.70;;;16.10;99.90;;;;;;5046726;28;20072;-44
2022/09/13 02:09:55;;;;;;;32.38;18.25;;;16.00;99.90;;;;;;5047003;28;20049;-45
2022/09/13 02:12:24;;;;;;;34.35;17.98;;;16.30;99.90;;;;;;5046844;28;20049;-44
2022/09/13 02:14:56;;;;;;;65.22;24.13;;;16.00;99.90;;;;;;5046989;28;20037;-44
2022/09/13 02:17:26;;;;;;;45.50;20.52;;;16.00;99.90;;;;;;5046736;28;20044;-45
2022/09/13 02:20:02;;;;;;;57.78;21.92;;;16.10;99.90;;;;;;5046681;28;20487;-46
2022/09/13 02:22:40;;;;;;;37.45;21.85;;;16.10;99.90;;;;;;5047175;28;20045;-44
2022/09/13 02:25:12;;;;;;;42.35;22.17;;;16.00;99.90;;;;;;5046435;28;20049;-46
2022/09/13 02:27:40;;;;;;;39.80;21.33;;;16.00;99.90;;;;;;5046487;28;20115;-44
2022/09/13 02:30:11;;;;;;;54.63;23.85;;;16.00;99.90;;;;;;5045836;28;20049;-44
2022/09/13 02:32:47;;;;;;;95.90;28.70;;;16.00;99.90;;;;;;5028778;28;20051;-44
2022/09/13 02:35:31;;;;;;;90.50;29.17;;;16.10;99.90;;;;;;5046483;28;20041;-45
2022/09/13 02:38:03;;;;;;;55.92;24.00;;;16.00;99.90;;;;;;5046230;28;20114;-45
2022/09/13 02:40:31;;;;;;;;;;;16.00;99.90;;;;;;5046855;28;20148;-46
2022/09/13 02:43:04;;;;;;;112.15;34.45;;;16.00;99.90;;;;;;5046353;28;20398;-46
2022/09/13 02:45:48;;;;;;;65.47;28.30;;;16.00;99.90;;;;;;5046822;28;20526;-44
2022/09/13 02:48:28;;;;;;;82.95;29.52;;;16.00;99.90;;;;;;5046892;28;20486;-45
2022/09/13 02:51:02;;;;;;;74.80;29.15;;;16.00;99.90;;;;;;5045945;28;20395;-46
2022/09/13 02:53:42;;;;;;;52.05;25.40;;;16.10;99.90;;;;;;5045720;28;20483;-45
2022/09/13 02:56:19;;;;;;;71.55;28.90;;;16.00;99.90;;;;;;5045732;28;20037;-46
2022/09/13 02:58:53;;;;;;;57.00;27.10;;;16.00;99.90;;;;;;5046390;28;20175;-46
2022/09/13 03:01:20;;;;;;;59.05;27.13;;;16.00;99.90;;;;;;5046205;28;20037;-45
2022/09/13 03:03:46;;;;;;;44.47;26.80;;;16.00;99.90;;;;;;5046127;28;20037;-46
2022/09/13 03:06:12;;;;;;;76.93;30.65;;;16.00;99.90;;;;;;5045354;28;20160;-45
2022/09/13 03:08:38;;;;;;;64.68;30.33;;;16.00;99.90;;;;;;5045627;28;20140;-45
2022/09/13 03:11:17;;;;;;;53.90;27.13;;;16.20;99.90;;;;;;5045945;28;20051;-45
2022/09/13 03:14:19;;;;;;;66.65;31.08;;;16.00;99.90;;;;;;5046337;28;20045;-44
2022/09/13 03:17:06;;;;;;;75.68;33.17;;;16.00;99.90;;;;;;5046112;28;20037;-45
2022/09/13 03:19:50;;;;;;;79.45;32.65;;;16.00;99.90;;;;;;5046340;28;20045;-45
2022/09/13 03:22:38;;;;;;;69.25;31.52;;;16.00;99.90;;;;;;5028032;28;20494;-45
2022/09/13 03:25:15;;;;;;;72.00;31.85;;;16.10;99.90;;;;;;5045674;28;20121;-44
2022/09/13 03:28:17;;;;;;;49.38;29.42;;;16.00;99.90;;;;;;5045222;28;20556;-46
2022/09/13 03:30:54;;;;;;;;;;;16.00;99.90;;;;;;5043018;28;20057;-45
2022/09/13 03:33:29;;;;;;;90.18;35.38;;;16.00;99.90;;;;;;5045497;28;20349;-47
2022/09/13 03:36:05;;;;;;;60.70;31.27;;;16.00;99.90;;;;;;5027272;28;20033;-46
2022/09/13 03:38:38;;;;;;;66.80;31.40;;;16.10;99.90;;;;;;5045418;28;20045;-49
2022/09/13 03:41:19;;;;;;;61.90;30.90;;;16.00;99.90;;;;;;5045181;28;20179;-48
2022/09/13 03:43:48;;;;;;;53.13;29.75;;;16.10;99.90;;;;;;5045673;28;20045;-48
2022/09/13 03:46:24;;;;;;;49.03;28.75;;;16.30;99.90;;;;;;5044281;28;20434;-46
2022/09/13 03:48:50;;;;;;;72.65;29.85;;;16.10;99.90;;;;;;5045007;28;20526;-48
2022/09/13 03:51:16;;;;;;;63.38;30.20;;;16.10;99.90;;;;;;5045096;28;20036;-45
2022/09/13 03:53:49;;;;;;;52.75;28.55;;;16.10;99.90;;;;;;5045672;28;20603;-45
2022/09/13 03:56:17;;;;;;;54.47;27.92;;;16.10;99.90;;;;;;5045518;28;20399;-46
2022/09/13 03:58:42;;;;;;;60.03;29.30;;;16.20;99.90;;;;;;5045196;28;20485;-45
2022/09/13 04:01:09;;;;;;;42.03;26.10;;;16.20;99.90;;;;;;5039430;28;20239;-56
2022/09/13 04:03:36;;;;;;;62.35;29.58;;;16.20;99.90;;;;;;5032685;28;20542;-54
2022/09/13 04:06:02;;;;;;;51.95;26.95;;;16.20;99.90;;;;;;5033382;28;20037;-51
2022/09/13 04:08:27;;;;;;;47.95;26.42;;;16.30;99.90;;;;;;5037612;28;20059;-51
2022/09/13 04:10:53;;;;;;;50.13;28.15;;;16.30;99.90;;;;;;5038053;28;20037;-47
2022/09/13 04:13:21;;;;;;;47.63;27.25;;;16.30;99.90;;;;;;5039600;28;20037;-52
2022/09/13 04:15:47;;;;;;;47.10;26.48;;;16.40;99.90;;;;;;5038982;28;20043;-53
2022/09/13 04:18:13;;;;;;;50.60;25.80;;;16.30;99.90;;;;;;5038856;28;20483;-54
2022/09/13 04:20:39;;;;;;;45.28;25.50;;;16.40;99.90;;;;;;5038467;28;20129;-52
2022/09/13 04:23:04;;;;;;;42.65;24.67;;;16.40;99.90;;;;;;5038725;28;20037;-48
2022/09/13 04:25:30;;;;;;;42.15;25.48;;;16.40;99.90;;;;;;5042520;28;20037;-47
2022/09/13 04:27:58;;;;;;;45.80;24.98;;;16.50;99.90;;;;;;5045578;28;20045;-47
2022/09/13 04:30:24;;;;;;;42.63;25.70;;;16.50;99.90;;;;;;5048932;28;20048;-48
2022/09/13 04:32:50;;;;;;;26.23;17.88;;;16.50;99.90;;;;;;5049158;28;20049;-48
2022/09/13 04:35:16;;;;;;;38.50;23.27;;;16.50;99.90;;;;;;5049221;28;20053;-49
2022/09/13 04:37:43;;;;;;;40.75;23.13;;;16.50;99.90;;;;;;5049750;28;20124;-50
2022/09/13 04:40:09;;;;;;;40.83;22.52;;;16.50;99.90;;;;;;5049164;28;20056;-48
2022/09/13 04:42:35;;;;;;;43.90;24.50;;;16.50;99.90;;;;;;5030867;28;20052;-46
2022/09/13 04:45:01;;;;;;;41.38;23.00;;;16.50;99.90;;;;;;5048966;28;20037;-47
2022/09/13 04:47:27;;;;;;;38.45;23.02;;;16.50;99.90;;;;;;5048808;28;20383;-51
2022/09/13 04:49:52;;;;;;;32.10;21.55;;;16.50;99.90;;;;;;5048634;28;20056;-47
2022/09/13 04:52:18;;;;;;;35.50;20.92;;;16.50;99.90;;;;;;5048511;28;20041;-48
2022/09/13 04:54:44;;;;;;;36.65;21.05;;;16.70;99.90;;;;;;5048880;28;20074;-47
2022/09/13 04:57:10;;;;;;;57.88;24.25;;;16.60;99.90;;;;;;5048681;28;20447;-46
2022/09/13 04:59:36;;;;;;;53.25;24.02;;;16.50;99.90;;;;;;5049058;28;20049;-48
2022/09/13 05:02:01;;;;;;;53.28;21.83;;;16.60;99.90;;;;;;5048920;28;20051;-51
2022/09/13 05:04:27;;;;;;;44.03;21.45;;;16.60;99.90;;;;;;5048634;28;20150;-47
2022/09/13 05:06:52;;;;;;;39.33;20.95;;;16.60;99.90;;;;;;5048133;28;20085;-47
2022/09/13 05:09:18;;;;;;;44.28;20.58;;;16.60;99.90;;;;;;5048474;28;20048;-47
2022/09/13 05:11:44;;;;;;;74.53;25.33;;;16.60;99.90;;;;;;5048088;28;20041;-47
2022/09/13 05:14:11;;;;;;;38.15;20.60;;;16.60;99.90;;;;;;5047914;28;20045;-50
2022/09/13 05:16:37;;;;;;;42.03;21.38;;;16.60;99.90;;;;;;5048124;28;20053;-50
2022/09/13 05:19:03;;;;;;;41.70;20.83;;;16.60;99.90;;;;;;5048063;28;20063;-47
2022/09/13 05:21:29;;;;;;;36.15;19.90;;;16.60;99.90;;;;;;5047946;28;20048;-47
2022/09/13 05:23:56;;;;;;;64.15;24.23;;;16.60;99.90;;;;;;5048079;28;20169;-48
2022/09/13 05:26:24;;;;;;;32.92;17.67;;;16.60;99.90;;;;;;5047608;28;20045;-46
2022/09/13 05:28:50;;;;;;;29.08;16.38;;;16.60;99.90;;;;;;5047795;28;20052;-50
2022/09/13 05:31:23;;;;;;;36.17;16.38;;;16.60;99.90;;;;;;5047298;28;20053;-47
2022/09/13 05:34:13;;;;;;;24.38;15.90;;;16.60;99.90;;;;;;5047428;28;20110;-48
2022/09/13 05:36:40;;;;;;;30.50;15.55;;;16.60;99.90;;;;;;5046914;28;20060;-46
2022/09/13 05:39:06;;;;;;;30.45;15.50;;;16.60;99.90;;;;;;5047556;28;20052;-47
2022/09/13 05:41:32;;;;;;;26.73;14.75;;;16.60;99.90;;;;;;5046835;28;20650;-46
2022/09/13 05:43:58;;;;;;;28.05;14.30;;;16.70;99.90;;;;;;5047955;28;20072;-47
2022/09/13 05:46:23;;;;;;;22.30;15.02;;;16.70;99.90;;;;;;5047424;28;20045;-48
2022/09/13 05:48:49;;;;;;;26.63;15.23;;;16.60;99.90;;;;;;5047471;28;20044;-46
2022/09/13 05:51:17;;;;;;;27.35;15.90;;;16.70;99.90;;;;;;5047576;28;20082;-48
2022/09/13 05:53:45;;;;;;;26.65;15.63;;;16.70;99.90;;;;;;5047396;28;20102;-47
2022/09/13 05:56:17;;;;;;;28.05;15.32;;;16.70;99.90;;;;;;5047078;28;20040;-47
2022/09/13 05:58:46;;;;;;;26.67;15.10;;;16.70;99.90;;;;;;5046869;28;20049;-46
2022/09/13 06:01:13;;;;;;;28.73;16.33;;;16.70;99.90;;;;;;5047455;28;20117;-46
2022/09/13 06:03:39;;;;;;;23.48;14.55;;;16.70;99.90;;;;;;5046695;28;20040;-47
2022/09/13 06:06:05;;;;;;;36.05;17.45;;;16.70;99.90;;;;;;5046967;28;20491;-48
2022/09/13 06:08:32;;;;;;;34.72;15.73;;;16.70;99.90;;;;;;5046637;28;20499;-47
2022/09/13 06:11:03;;;;;;;25.83;13.27;;;16.80;99.90;;;;;;5046879;28;20403;-47
2022/09/13 06:13:29;;;;;;;20.40;12.15;;;16.80;99.90;;;;;;5046589;28;20395;-48
2022/09/13 06:15:56;;;;;;;16.65;10.05;;;16.80;99.90;;;;;;5046779;28;20056;-47
2022/09/13 06:18:23;;;;;;;14.90;7.05;;;16.90;99.90;;;;;;5045662;28;20466;-47
2022/09/13 06:20:49;;;;;;;8.30;4.55;;;16.90;99.90;;;;;;5045870;28;20486;-46
2022/09/13 06:23:15;;;;;;;9.10;4.97;;;16.90;99.90;;;;;;5046278;28;20116;-46
2022/09/13 06:25:42;;;;;;;5.38;3.17;;;16.90;99.90;;;;;;5046196;28;20036;-47
2022/09/13 06:28:08;;;;;;;7.28;3.08;;;16.90;99.90;;;;;;5046406;28;20407;-47
2022/09/13 06:30:34;;;;;;;8.80;3.17;;;16.90;99.90;;;;;;5045779;28;20041;-48
2022/09/13 06:33:00;;;;;;;6.78;3.47;;;16.90;99.90;;;;;;5019412;28;20146;-46
2022/09/13 06:35:26;;;;;;;7.20;2.50;;;16.90;99.90;;;;;;5045543;28;20040;-47
2022/09/13 06:37:55;;;;;;;11.82;2.67;;;17.50;99.90;;;;;;5046206;28;20035;-48
2022/09/13 06:40:21;;;;;;;5.05;2.30;;;16.90;99.90;;;;;;5045764;28;20049;-48
2022/09/13 06:42:47;;;;;;;6.47;2.70;;;16.90;99.90;;;;;;5046427;28;20041;-47
2022/09/13 06:45:13;;;;;;;5.90;2.50;;;16.90;99.90;;;;;;5046430;28;20510;-47
2022/09/13 06:47:38;;;;;;;6.10;2.15;;;16.90;99.90;;;;;;5045901;28;20033;-48
2022/09/13 06:50:06;;;;;;;6.25;2.15;;;16.90;99.90;;;;;;5046419;28;20051;-46
2022/09/13 06:52:31;;;;;;;5.03;2.03;;;16.90;99.90;;;;;;5044987;28;20033;-46
2022/09/13 06:54:57;;;;;;;7.32;2.28;;;17.00;99.90;;;;;;5046126;28;20497;-49
2022/09/13 06:57:23;;;;;;;3.95;1.67;;;17.00;99.90;;;;;;5045708;28;20041;-49
2022/09/13 06:59:49;;;;;;;6.95;2.08;;;17.00;99.90;;;;;;5045599;28;20033;-48
2022/09/13 07:02:15;;;;;;;2.60;1.50;;;17.10;99.90;;;;;;5045393;28;20478;-48
2022/09/13 07:04:40;;;;;;;6.03;1.85;;;17.00;99.90;;;;;;5044282;28;20152;-47
2022/09/13 07:07:06;;;;;;;4.65;1.17;;;17.10;99.90;;;;;;5027260;28;20083;-48
2022/09/13 07:09:33;;;;;;;4.85;1.02;;;17.00;99.90;;;;;;5045550;28;20518;-51
2022/09/13 07:11:59;;;;;;;8.23;1.33;;;17.20;99.90;;;;;;5046076;28;20367;-48
2022/09/13 07:14:28;;;;;;;7.57;1.88;;;17.20;99.90;;;;;;5045859;28;20156;-50
2022/09/13 07:16:54;;;;;;;6.35;1.55;;;17.30;99.90;;;;;;5046329;28;20052;-48
2022/09/13 07:19:25;;;;;;;9.45;1.40;;;17.30;99.90;;;;;;5045541;28;20056;-49
2022/09/13 07:21:52;;;;;;;5.75;1.80;;;17.40;99.90;;;;;;5045787;28;20064;-51
2022/09/13 07:24:19;;;;;;;4.00;1.27;;;17.40;99.90;;;;;;5045720;28;20049;-48
2022/09/13 07:26:45;;;;;;;6.25;1.58;;;17.50;99.90;;;;;;5045246;28;20049;-48
2022/09/13 07:29:15;;;;;;;3.20;1.40;;;17.60;99.90;;;;;;5045442;28;20037;-48
2022/09/13 07:31:43;;;;;;;6.20;1.27;;;17.70;99.90;;;;;;5027656;28;20099;-46
2022/09/13 07:34:19;;;;;;;3.80;1.50;;;18.10;99.90;;;;;;5045180;28;20043;-47
2022/09/13 07:36:45;;;;;;;6.22;1.10;;;18.10;99.90;;;;;;5044896;28;20517;-46
2022/09/13 07:39:13;;;;;;;4.78;1.50;;;18.40;99.90;;;;;;5044972;28;20418;-48
2022/09/13 07:41:39;;;;;;;3.88;1.15;;;18.70;99.90;;;;;;5045242;28;20624;-48
2022/09/13 07:44:05;;;;;;;6.85;1.35;;;18.90;99.90;;;;;;5045496;28;20386;-46
2022/09/13 07:46:32;;;;;;;6.05;1.55;;;19.10;99.90;;;;;;5045294;28;20041;-47
2022/09/13 07:48:59;;;;;;;5.68;0.60;;;19.50;99.90;;;;;;5045895;28;20106;-46
2022/09/13 07:51:27;;;;;;;6.05;0.80;;;19.80;99.90;;;;;;5045813;28;20126;-48
2022/09/13 07:53:58;;;;;;;3.97;0.60;;;20.00;99.90;;;;;;5045506;28;20380;-47
2022/09/13 07:56:27;;;;;;;5.90;0.93;;;20.00;99.90;;;;;;5045211;28;20529;-48
2022/09/13 07:58:56;;;;;;;7.40;0.30;;;20.30;99.90;;;;;;5045578;28;20391;-46
2022/09/13 08:01:26;;;;;;;7.00;0.60;;;20.40;99.90;;;;;;5045699;28;20120;-51
2022/09/13 08:03:56;;;;;;;4.30;0.25;;;20.50;99.90;;;;;;5046924;28;20041;-47
2022/09/13 08:06:24;;;;;;;2.53;0.20;;;20.50;99.90;;;;;;5049436;28;20068;-47
2022/09/13 08:08:50;;;;;;;5.00;0.60;;;20.40;99.90;;;;;;5049144;28;20502;-47
2022/09/13 08:11:18;;;;;;;3.35;0.20;;;20.20;99.90;;;;;;5049610;28;20044;-47
2022/09/13 08:13:48;;;;;;;5.05;0.52;;;20.20;99.90;;;;;;5049340;28;20052;-48
2022/09/13 08:16:15;;;;;;;4.63;0.38;;;20.30;99.90;;;;;;5049603;28;20037;-47
2022/09/13 08:18:45;;;;;;;4.32;0.35;;;20.50;99.90;;;;;;5048987;28;20045;-47
2022/09/13 08:21:11;;;;;;;4.78;0.43;;;21.00;99.90;;;;;;5049861;28;20052;-46
2022/09/13 08:23:37;;;;;;;8.98;0.47;;;20.90;99.90;;;;;;5049985;28;20037;-52
2022/09/13 08:26:05;;;;;;;3.30;0.40;;;21.70;99.90;;;;;;5049576;28;20437;-48
2022/09/13 08:28:31;;;;;;;3.22;0.20;;;22.80;99.90;;;;;;5048985;28;20502;-49
2022/09/13 08:31:21;;;;;;;3.35;0.38;;;22.80;99.90;;;;;;5049423;28;20043;-48
2022/09/13 08:33:47;;;;;;;3.80;0.17;;;22.80;99.90;;;;;;5049037;28;20040;-50
2022/09/13 08:36:14;;;;;;;5.75;0.47;;;23.60;99.90;;;;;;5048999;28;20364;-48
2022/09/13 08:38:53;;;;;;;4.40;0.20;;;23.60;99.90;;;;;;5048839;28;20134;-48
2022/09/13 08:41:40;;;;;;;3.50;0.10;;;23.10;99.90;;;;;;5048902;28;20036;-49
2022/09/13 08:44:15;;;;;;;1.45;0.20;;;22.60;99.90;;;;;;5048751;28;20045;-49
2022/09/13 08:46:45;;;;;;;6.00;0.28;;;22.80;99.90;;;;;;5048988;28;20044;-50
2022/09/13 08:49:17;;;;;;;4.30;0.30;;;24.20;99.90;;;;;;5048669;28;20730;-48
2022/09/13 08:51:52;;;;;;;4.57;0.22;;;26.00;99.90;;;;;;5048334;28;20047;-47
2022/09/13 08:54:19;;;;;;;2.97;0.22;;;27.50;99.90;;;;;;5048033;28;20045;-48
2022/09/13 08:57:05;;;;;;;4.28;0.55;;;28.10;98.70;;;;;;5047880;28;20449;-48
2022/09/13 08:59:58;;;;;;;1.77;0.20;;;28.80;96.50;;;;;;5047962;28;20048;-50
2022/09/13 09:02:51;;;;;;;3.40;0.17;;;29.80;94.60;;;;;;5048057;28;20041;-52
2022/09/13 09:05:26;;;;;;;3.70;0.32;;;29.60;92.40;;;;;;5048250;28;20041;-49
2022/09/13 09:08:37;;;;;;;3.95;0.10;;;29.90;91.20;;;;;;5047577;28;20063;-50
2022/09/13 09:11:12;;;;;;;4.53;0.40;;;30.00;90.70;;;;;;5018995;28;20053;-49
2022/09/13 09:14:04;;;;;;;4.82;0.20;;;29.50;90.30;;;;;;5048291;28;20040;-49
2022/09/13 09:16:36;;;;;;;;;;;28.30;90.00;;;;;;5047841;28;20094;-48
2022/09/13 09:19:13;;;;;;;2.15;0.10;;;27.30;91.40;;;;;;5048251;28;20394;-50
2022/09/13 09:21:40;;;;;;;7.13;1.48;;;26.30;92.90;;;;;;5047971;28;20487;-49
2022/09/13 09:24:10;;;;;;;6.47;0.20;;;26.40;93.90;;;;;;5048447;28;20120;-50
2022/09/13 09:26:36;;;;;;;3.50;0.52;;;27.10;93.20;;;;;;5048575;28;20398;-51
2022/09/13 09:29:14;;;;;;;2.90;0.30;;;28.00;91.90;;;;;;5047928;28;20049;-50
2022/09/13 09:32:15;;;;;;;4.97;0.45;;;28.90;90.80;;;;;;5047307;28;20041;-50
2022/09/13 09:35:16;;;;;;;3.60;0.30;;;29.70;90.30;;;;;;5047554;28;20402;-50
2022/09/13 09:37:49;;;;;;;6.00;0.40;;;29.80;88.30;;;;;;5047939;28;20040;-50
2022/09/13 09:40:16;;;;;;;3.72;0.40;;;28.60;90.00;;;;;;5047785;28;20045;-52
2022/09/13 09:42:43;;;;;;;7.38;0.50;;;27.50;89.10;;;;;;5047616;28;20047;-47
2022/09/13 09:45:27;;;;;;;5.82;0.85;;;26.30;90.50;;;;;;5048111;28;20052;-49
2022/09/13 09:47:54;;;;;;;5.72;0.22;;;25.20;90.90;;;;;;5047201;28;20049;-47
2022/09/13 09:50:21;;;;;;;4.07;0.70;;;24.80;92.60;;;;;;5047001;28;20044;-48
2022/09/13 09:53:16;;;;;;;3.38;0.40;;;24.90;94.80;;;;;;5047010;28;20475;-47
2022/09/13 09:55:53;;;;;;;5.15;0.32;;;24.80;94.40;;;;;;5038276;28;20474;-48
2022/09/13 09:58:37;;;;;;;4.03;0.17;;;24.90;95.80;;;;;;5029367;28;20055;-51
2022/09/13 10:01:05;;;;;;;3.97;0.20;;;25.10;94.10;;;;;;5046566;28;20406;-48
2022/09/13 10:03:33;;;;;;;2.13;0.20;;;25.30;94.70;;;;;;5046998;28;20110;-50
2022/09/13 10:06:17;;;;;;;1.75;0.20;;;25.50;93.50;;;;;;5047215;28;20048;-49
2022/09/13 10:08:55;;;;;;;2.95;0.10;;;26.00;93.00;;;;;;5046276;28;20146;-50
2022/09/13 10:11:21;;;;;;;3.55;0.20;;;26.50;91.30;;;;;;5046865;28;20048;-51
2022/09/13 10:13:59;;;;;;;3.85;0.20;;;26.30;90.90;;;;;;5047025;28;20151;-51
2022/09/13 10:16:28;;;;;;;6.68;0.25;;;25.70;90.00;;;;;;5047349;28;20045;-48
2022/09/13 10:19:14;;;;;;;3.25;0.20;;;25.00;91.10;;;;;;5046763;28;20116;-48
2022/09/13 10:21:40;;;;;;;3.08;0.10;;;24.70;92.00;;;;;;5047132;28;20087;-48
2022/09/13 10:24:17;;;;;;;5.90;0.20;;;24.30;92.10;;;;;;5046349;28;20041;-48
2022/09/13 10:26:42;;;;;;;4.57;0.20;;;24.10;92.10;;;;;;5046636;28;20347;-49
2022/09/13 10:29:14;;;;;;;4.03;0.30;;;23.90;94.10;;;;;;5046469;28;20041;-48
2022/09/13 10:31:41;;;;;;;;;;;23.80;93.00;;;;;;5047540;28;20043;-47
2022/09/13 10:34:15;;;;;;;4.75;0.22;;;23.60;93.70;;;;;;5046336;28;19983;-48
2022/09/13 10:37:19;;;;;;;2.22;0.15;;;23.50;93.70;;;;;;5046937;28;20040;-47
2022/09/13 10:40:00;;;;;;;2.55;0.10;;;23.50;94.40;;;;;;5046125;28;20055;-47
2022/09/13 10:42:28;;;;;;;4.22;0.43;;;23.40;94.60;;;;;;5046258;28;20198;-47
2022/09/13 10:44:59;;;;;;;5.57;0.47;;;23.30;94.90;;;;;;5045726;28;20048;-48
2022/09/13 10:47:33;;;;;;;3.80;0.22;;;23.20;95.10;;;;;;5045675;28;20044;-47
2022/09/13 10:50:17;;;;;;;7.00;0.38;;;23.10;95.30;;;;;;5045748;28;20456;-48
2022/09/13 10:52:51;;;;;;;2.60;0.20;;;23.10;95.40;;;;;;5045814;28;20501;-47
2022/09/13 10:55:19;;;;;;;6.50;0.30;;;23.10;95.60;;;;;;5045534;28;20053;-48
2022/09/13 10:57:50;;;;;;;3.53;0.30;;;23.20;95.80;;;;;;5045890;28;20075;-49
2022/09/13 11:00:24;;;;;;;4.80;0.20;;;23.30;95.10;;;;;;5045934;28;20808;-47
2022/09/13 11:03:02;;;;;;;9.60;0.30;;;23.20;94.60;;;;;;5027664;28;20040;-48
2022/09/13 11:05:40;;;;;;;1.58;0.20;;;23.00;94.60;;;;;;5045760;28;20368;-47
2022/09/13 11:08:41;;;;;;;2.63;0.20;;;22.90;94.40;;;;;;5045563;28;20135;-47
2022/09/13 11:11:35;;;;;;;3.50;0.10;;;22.60;94.50;;;;;;5040185;28;20049;-47
2022/09/13 11:14:28;;;;;;;4.43;0.40;;;22.10;95.00;;;;;;5046228;28;20070;-47
2022/09/13 11:17:19;;;;;;;5.60;0.35;;;22.00;95.70;;;;;;5045879;28;20045;-47
2022/09/13 11:19:59;;;;;;;4.85;0.43;;;22.00;96.20;;;;;;5045675;28;20053;-46
2022/09/13 11:22:50;;;;;;;3.60;0.30;;;22.00;96.40;;;;;;5045782;28;20522;-47
2022/09/13 11:25:43;;;;;;;6.15;0.43;;;22.20;96.40;;;;;;5045370;28;20041;-46
2022/09/13 11:28:37;;;;;;;2.65;0.20;;;22.50;94.40;;;;;;5045658;28;20041;-48
2022/09/13 11:31:15;;;;;;;8.30;0.20;;;22.50;95.30;;;;;;5045524;28;20048;-48
2022/09/13 11:34:18;;;;;;;2.95;0.15;;;22.30;95.60;;;;;;5046449;28;20052;-47
2022/09/13 11:36:46;;;;;;;2.67;0.52;;;22.40;96.50;;;;;;5045703;28;20095;-46
2022/09/13 11:39:21;;;;;;;4.13;0.50;;;22.40;96.90;;;;;;5049850;28;20056;-47
2022/09/13 11:41:52;;;;;;;5.60;0.20;;;22.60;96.40;;;;;;5052433;28;20041;-46
2022/09/13 11:44:36;;;;;;;3.47;0.15;;;22.70;95.90;;;;;;5052324;28;20047;-47
2022/09/13 11:47:32;;;;;;;5.70;0.50;;;22.90;95.00;;;;;;5052532;28;20494;-46
2022/09/13 11:50:17;;;;;;;3.80;0.43;;;23.10;95.10;;;;;;5052379;28;20520;-47
2022/09/13 11:53:01;;;;;;;5.13;0.40;;;22.90;95.20;;;;;;5051931;28;20094;-47
2022/09/13 11:55:29;;;;;;;7.35;0.50;;;22.60;95.40;;;;;;5051483;28;20547;-47
2022/09/13 11:57:58;;;;;;;3.28;0.38;;;22.20;95.90;;;;;;5051394;28;20521;-47
2022/09/13 12:00:39;;;;;;;6.03;0.20;;;22.00;96.20;;;;;;5051627;28;20041;-47
2022/09/13 12:03:11;;;;;;;2.60;0.30;;;22.00;97.00;;;;;;5051823;28;20372;-47
2022/09/13 12:05:56;;;;;;;;;;;22.00;97.20;;;;;;5052287;28;20433;-48
2022/09/13 12:08:34;;;;;;;6.22;0.22;;;22.00;96.80;;;;;;5051308;28;19924;-49
2022/09/13 12:11:11;;;;;;;5.25;0.20;;;22.20;96.90;;;;;;5051283;28;20037;-47
2022/09/13 12:13:49;;;;;;;7.65;0.40;;;22.30;96.40;;;;;;5034122;28;20529;-48
2022/09/13 12:16:38;;;;;;;4.80;0.68;;;22.40;96.50;;;;;;5051794;28;20048;-47
2022/09/13 12:19:11;;;;;;;3.50;0.20;;;22.40;96.10;;;;;;5051687;28;20171;-47
2022/09/13 12:21:39;;;;;;;2.53;0.17;;;22.40;96.50;;;;;;5052366;28;20057;-47
2022/09/13 12:24:27;;;;;;;3.65;0.20;;;22.20;97.40;;;;;;5052123;28;20044;-46
2022/09/13 12:27:20;;;;;;;2.67;0.20;;;22.20;97.00;;;;;;5051984;28;20063;-46
2022/09/13 12:30:17;;;;;;;6.75;0.40;;;22.10;96.50;;;;;;5052060;28;20887;-47
2022/09/13 12:32:45;;;;;;;3.30;0.30;;;22.00;96.60;;;;;;5051952;28;20402;-47
2022/09/13 12:35:28;;;;;;;3.60;0.13;;;21.90;97.10;;;;;;5051327;28;20056;-47
2022/09/13 12:38:48;;;;;;;4.28;0.10;;;21.80;96.60;;;;;;5052421;28;20589;-47
2022/09/13 12:41:38;;;;;;;3.00;0.13;;;21.70;96.20;;;;;;5008830;28;20563;-50
2022/09/13 12:44:23;;;;;;;4.25;0.22;;;21.60;96.50;;;;;;5049576;28;20128;-50
2022/09/13 12:47:02;;;;;;;1.90;0.10;;;21.60;96.80;;;;;;5051447;28;20044;-51
2022/09/13 12:49:31;;;;;;;4.85;0.20;;;21.50;95.90;;;;;;5050595;28;20047;-50
2022/09/13 12:52:14;;;;;;;2.97;0.10;;;21.40;96.00;;;;;;5048482;28;20037;-49
2022/09/13 12:54:43;;;;;;;2.55;0.10;;;21.40;96.20;;;;;;5048775;28;20048;-48
2022/09/13 12:57:27;;;;;;;3.17;0.32;;;21.40;96.50;;;;;;5047861;28;20502;-47
2022/09/13 13:00:20;;;;;;;4.70;0.50;;;21.60;96.40;;;;;;5048172;28;20052;-47
2022/09/13 13:03:10;;;;;;;4.45;0.22;;;21.60;96.10;;;;;;5048528;28;20382;-50
2022/09/13 13:05:50;;;;;;;3.05;0.47;;;21.60;96.10;;;;;;5048164;28;20124;-46
2022/09/13 13:08:19;;;;;;;8.13;0.57;;;21.60;96.90;;;;;;5047525;28;20088;-48
2022/09/13 13:11:03;;;;;;;3.15;0.10;;;21.60;96.10;;;;;;5047822;28;20053;-47